Time;durP1;ratioP1;P1;durP2;ratioP2;P2;SDS_P1;SDS_P2;PMS_P1;PMS_P2;Temp;Humidity;BMP_temperature;BMP_pressure;BME280_temperature;BME280_humidity;BME280_pressure;Samples;Min_cycle;Max_cycle;Signal;HPM_P1;HPM_P2
2024/01/12 00:00:20;;;;;;;;;;;0.30;99.90;;;;;;5111340;28;20122;-74
2024/01/12 00:02:46;;;;;;;0.70;0.70;;;1.10;99.90;;;;;;5114608;27;20135;-77
2024/01/12 00:05:12;;;;;;;0.70;0.70;;;1.10;99.90;;;;;;5116249;27;20035;-79
2024/01/12 00:07:38;;;;;;;;;;;1.10;99.90;;;;;;5112734;27;20396;-78
2024/01/12 00:10:04;;;;;;;0.60;0.60;;;1.10;99.90;;;;;;5118245;27;19919;-80
2024/01/12 00:12:30;;;;;;;0.63;0.63;;;1.20;99.90;;;;;;5110350;28;20047;-76
2024/01/12 00:14:56;;;;;;;0.50;0.50;;;1.20;99.90;;;;;;5094302;28;20454;-77
2024/01/12 00:17:22;;;;;;;0.63;0.63;;;1.50;99.90;;;;;;5120489;27;20094;-76
2024/01/12 00:19:48;;;;;;;0.50;0.50;;;1.30;99.90;;;;;;5095137;27;20472;-74
2024/01/12 00:22:13;;;;;;;0.70;0.70;;;1.30;99.90;;;;;;5120963;27;20401;-77
2024/01/12 00:24:39;;;;;;;0.70;0.70;;;1.40;99.90;;;;;;5094147;28;20134;-82
2024/01/12 00:27:05;;;;;;;0.60;0.60;;;1.40;99.90;;;;;;5096967;27;20027;-76
2024/01/12 00:29:31;;;;;;;0.70;0.70;;;1.40;99.90;;;;;;5116770;27;20047;-76
2024/01/12 00:31:56;;;;;;;0.60;0.60;;;1.40;99.90;;;;;;5075596;27;20482;-78
2024/01/12 00:34:22;;;;;;;0.60;0.60;;;1.50;99.90;;;;;;5119502;27;20150;-79
2024/01/12 00:36:49;;;;;;;;;;;1.50;99.90;;;;;;5094444;28;20055;-75
2024/01/12 00:39:17;;;;;;;0.70;0.70;;;1.60;99.90;;;;;;5113083;27;20006;-80
2024/01/12 00:41:43;;;;;;;0.70;0.70;;;1.60;99.90;;;;;;5114443;27;20066;-73
2024/01/12 00:44:08;;;;;;;;;;;1.60;99.90;;;;;;5119879;27;20047;-79
2024/01/12 00:46:34;;;;;;;0.60;0.60;;;1.60;99.90;;;;;;5118015;27;19935;-78
2024/01/12 00:49:00;;;;;;;0.60;0.60;;;1.70;99.90;;;;;;5110313;28;20039;-80
2024/01/12 00:51:26;;;;;;;0.70;0.70;;;1.70;99.90;;;;;;5094863;27;20046;-74
2024/01/12 00:53:51;;;;;;;0.60;0.60;;;1.80;99.90;;;;;;5125201;27;20070;-77
2024/01/12 00:56:17;;;;;;;0.75;0.75;;;1.80;99.90;;;;;;5110607;28;20051;-79
2024/01/12 00:58:43;;;;;;;0.60;0.60;;;1.80;99.90;;;;;;5101562;28;20445;-77
2024/01/12 01:01:13;;;;;;;2.53;2.38;;;1.80;99.90;;;;;;5093561;28;20040;-78
2024/01/12 01:03:39;;;;;;;0.60;0.60;;;1.90;99.90;;;;;;5072649;28;20053;-77
2024/01/12 01:06:05;;;;;;;1.20;1.15;;;2.20;99.90;;;;;;5104426;28;20484;-80
2024/01/12 01:08:31;;;;;;;0.60;0.60;;;1.90;99.90;;;;;;5092799;27;20489;-81
2024/01/12 01:10:57;;;;;;;0.90;0.90;;;1.90;99.90;;;;;;5101042;28;20036;-77
2024/01/12 01:13:22;;;;;;;0.80;0.80;;;1.90;99.90;;;;;;5072232;28;20047;-76
2024/01/12 01:15:48;;;;;;;0.90;0.90;;;2.00;99.90;;;;;;5109016;28;20067;-80
2024/01/12 01:18:15;;;;;;;0.60;0.60;;;2.00;99.90;;;;;;5111646;28;20047;-79
2024/01/12 01:20:41;;;;;;;0.60;0.60;;;1.90;99.90;;;;;;5111579;28;20092;-76
2024/01/12 01:23:07;;;;;;;0.55;0.55;;;2.00;99.90;;;;;;5109598;28;20434;-80
2024/01/12 01:25:32;;;;;;;0.63;0.63;;;2.00;99.90;;;;;;5092513;28;20043;-78
2024/01/12 01:27:58;;;;;;;0.60;0.60;;;3.00;99.90;;;;;;5109719;28;20043;-77
2024/01/12 01:30:24;;;;;;;0.70;0.70;;;1.90;99.90;;;;;;5109707;28;20080;-76
2024/01/12 01:32:50;;;;;;;0.60;0.60;;;1.90;99.90;;;;;;5072784;28;20543;-78
2024/01/12 01:35:16;;;;;;;0.60;0.60;;;1.80;99.90;;;;;;5104355;27;20047;-79
2024/01/12 01:37:43;;;;;;;0.50;0.50;;;1.80;99.90;;;;;;5097842;28;20032;-80
2024/01/12 01:40:09;;;;;;;0.60;0.60;;;1.80;99.90;;;;;;5111406;28;20043;-74
2024/01/12 01:42:34;;;;;;;;;;;1.80;99.90;;;;;;5116918;28;20046;-78
2024/01/12 01:45:01;;;;;;;0.65;0.65;;;1.70;99.90;;;;;;5109575;28;19928;-76
2024/01/12 01:47:27;;;;;;;0.93;0.93;;;1.80;99.90;;;;;;5121991;28;20039;-76
2024/01/12 01:49:54;;;;;;;0.60;0.60;;;1.70;99.90;;;;;;5115033;28;20043;-77
2024/01/12 01:52:22;;;;;;;0.60;0.60;;;1.70;99.90;;;;;;5110495;28;20043;-79
2024/01/12 01:54:48;;;;;;;0.93;0.80;;;1.70;99.90;;;;;;5099440;28;20450;-77
2024/01/12 01:57:15;;;;;;;0.60;0.60;;;1.70;99.90;;;;;;5109767;28;20039;-76
2024/01/12 01:59:41;;;;;;;0.90;0.90;;;1.70;99.90;;;;;;5111970;28;20194;-82
2024/01/12 02:02:08;;;;;;;0.52;0.52;;;1.70;99.90;;;;;;5114631;28;20051;-79
2024/01/12 02:04:35;;;;;;;0.60;0.60;;;1.60;99.90;;;;;;5093359;28;20099;-75
2024/01/12 02:07:01;;;;;;;0.50;0.50;;;1.60;99.90;;;;;;5107970;28;20043;-77
2024/01/12 02:09:28;;;;;;;0.75;0.75;;;1.60;99.90;;;;;;5109137;28;20090;-79
2024/01/12 02:11:54;;;;;;;0.50;0.50;;;1.60;99.90;;;;;;5084124;28;20048;-77
2024/01/12 02:14:20;;;;;;;0.60;0.60;;;1.60;99.90;;;;;;5092281;28;20043;-78
2024/01/12 02:16:46;;;;;;;0.68;0.68;;;1.60;99.90;;;;;;5093621;28;20456;-78
2024/01/12 02:19:12;;;;;;;0.65;0.65;;;1.60;99.90;;;;;;5099779;28;20100;-80
2024/01/12 02:21:38;;;;;;;0.70;0.70;;;1.70;99.90;;;;;;5109275;28;20035;-76
2024/01/12 02:24:04;;;;;;;0.57;0.57;;;1.70;99.90;;;;;;5094961;28;20088;-77
2024/01/12 02:26:30;;;;;;;1.73;1.27;;;1.60;99.90;;;;;;5123083;28;20047;-78
2024/01/12 02:28:57;;;;;;;0.70;0.70;;;1.60;99.90;;;;;;5108539;28;20035;-80
2024/01/12 02:31:24;;;;;;;0.70;0.70;;;1.60;99.90;;;;;;5096031;28;20048;-77
2024/01/12 02:33:50;;;;;;;0.82;0.82;;;1.60;99.90;;;;;;5079149;28;20047;-79
2024/01/12 02:36:15;;;;;;;0.60;0.60;;;1.40;99.90;;;;;;5115951;27;20443;-76
2024/01/12 02:38:42;;;;;;;0.60;0.60;;;1.30;99.90;;;;;;5101328;28;20079;-76
2024/01/12 02:41:08;;;;;;;0.90;0.90;;;1.20;99.90;;;;;;5113082;28;20040;-78
2024/01/12 02:43:34;;;;;;;;;;;1.10;99.90;;;;;;5097924;28;20035;-75
2024/01/12 02:46:00;;;;;;;0.70;0.70;;;1.00;99.90;;;;;;5115631;28;19945;-77
2024/01/12 02:48:25;;;;;;;0.65;0.65;;;0.90;99.90;;;;;;5116774;27;20048;-77
2024/01/12 02:50:51;;;;;;;0.70;0.70;;;0.90;99.90;;;;;;5101154;28;20583;-80
2024/01/12 02:53:18;;;;;;;1.50;1.23;;;0.70;99.90;;;;;;5113169;28;20043;-78
2024/01/12 02:55:43;;;;;;;0.57;0.57;;;0.70;99.90;;;;;;5113034;28;20411;-76
2024/01/12 02:58:09;;;;;;;0.70;0.70;;;0.80;99.90;;;;;;5112934;28;20069;-75
2024/01/12 03:00:35;;;;;;;0.70;0.70;;;0.70;99.90;;;;;;5114616;27;20043;-79
2024/01/12 03:03:00;;;;;;;0.93;0.93;;;0.70;99.90;;;;;;5118490;27;20047;-75
2024/01/12 03:05:26;;;;;;;0.70;0.70;;;0.80;99.90;;;;;;5095665;27;20098;-82
2024/01/12 03:07:52;;;;;;;0.70;0.70;;;0.80;99.90;;;;;;5112226;28;20079;-80
2024/01/12 03:10:17;;;;;;;0.63;0.63;;;0.80;99.90;;;;;;5112248;28;20492;-77
2024/01/12 03:12:43;;;;;;;1.50;1.40;;;0.80;99.90;;;;;;5113782;27;20043;-76
2024/01/12 03:15:09;;;;;;;0.70;0.70;;;0.80;99.90;;;;;;5119065;27;20035;-76
2024/01/12 03:17:34;;;;;;;0.60;0.60;;;2.00;99.90;;;;;;5101276;27;20043;-79
2024/01/12 03:20:00;;;;;;;0.63;0.63;;;0.70;99.90;;;;;;5111838;27;20559;-79
2024/01/12 03:22:29;;;;;;;0.60;0.60;;;0.70;99.90;;;;;;5113577;27;20464;-76
2024/01/12 03:24:54;;;;;;;0.70;0.70;;;0.80;99.90;;;;;;5111240;27;20100;-75
2024/01/12 03:27:20;;;;;;;0.70;0.70;;;0.70;99.90;;;;;;5112909;27;20055;-81
2024/01/12 03:29:46;;;;;;;0.70;0.70;;;0.80;99.90;;;;;;5112385;27;20043;-78
2024/01/12 03:32:11;;;;;;;0.60;0.60;;;0.90;99.90;;;;;;5095492;28;20040;-76
2024/01/12 03:34:38;;;;;;;0.60;0.60;;;1.00;99.90;;;;;;5112197;28;20054;-78
2024/01/12 03:37:04;;;;;;;0.65;0.65;;;1.10;99.90;;;;;;5104106;28;20061;-77
2024/01/12 03:39:29;;;;;;;0.77;0.77;;;1.30;99.90;;;;;;5094995;28;20450;-79
2024/01/12 03:41:55;;;;;;;0.80;0.80;;;1.40;99.90;;;;;;5111802;27;20046;-78
2024/01/12 03:44:21;;;;;;;0.68;0.68;;;1.40;99.90;;;;;;5124795;27;20096;-79
2024/01/12 03:46:47;;;;;;;0.60;0.60;;;1.40;99.90;;;;;;5097329;28;20039;-80
2024/01/12 03:49:12;;;;;;;0.60;0.60;;;1.40;99.90;;;;;;5114358;27;20050;-78
2024/01/12 03:51:42;;;;;;;0.60;0.60;;;1.40;99.90;;;;;;5116642;27;20051;-77
2024/01/12 03:54:08;;;;;;;0.60;0.60;;;1.50;99.90;;;;;;5112475;27;20391;-79
2024/01/12 03:56:34;;;;;;;1.33;1.33;;;1.40;99.90;;;;;;5118029;27;20107;-77
2024/01/12 03:59:00;;;;;;;0.75;0.75;;;1.50;99.90;;;;;;5077813;28;20445;-80
2024/01/12 04:01:26;;;;;;;0.60;0.60;;;1.90;99.90;;;;;;5116011;27;20049;-74
2024/01/12 04:03:52;;;;;;;0.63;0.63;;;1.40;99.90;;;;;;5118362;27;20043;-79
2024/01/12 04:06:18;;;;;;;0.70;0.70;;;1.50;99.90;;;;;;5075870;28;20472;-78
2024/01/12 04:08:44;;;;;;;0.60;0.60;;;1.50;99.90;;;;;;5110440;28;20052;-80
2024/01/12 04:11:21;;;;;;;0.70;0.70;;;1.50;99.90;;;;;;5074846;28;20055;-76
2024/01/12 04:13:46;;;;;;;0.68;0.68;;;1.40;99.90;;;;;;5093082;28;20078;-76
2024/01/12 04:16:12;;;;;;;0.60;0.60;;;1.40;99.90;;;;;;5111018;28;20468;-77
2024/01/12 04:18:39;;;;;;;0.70;0.70;;;1.70;99.90;;;;;;5114599;27;20040;-77
2024/01/12 04:21:05;;;;;;;0.60;0.60;;;1.40;99.90;;;;;;5116512;27;20043;-75
2024/01/12 04:23:31;;;;;;;0.60;0.60;;;1.40;99.90;;;;;;5094221;27;20042;-77
2024/01/12 04:25:57;;;;;;;0.63;0.63;;;1.30;99.90;;;;;;5100934;28;20373;-79
2024/01/12 04:28:22;;;;;;;0.80;0.80;;;2.00;99.90;;;;;;5094112;28;20114;-77
2024/01/12 04:30:48;;;;;;;0.57;0.57;;;1.50;99.90;;;;;;5096750;27;20035;-80
2024/01/12 04:33:14;;;;;;;0.90;0.90;;;1.60;99.90;;;;;;5122768;27;20049;-77
2024/01/12 04:35:40;;;;;;;0.65;0.65;;;1.50;99.90;;;;;;5114371;28;20058;-79
2024/01/12 04:38:06;;;;;;;0.93;0.93;;;1.60;99.90;;;;;;5118314;27;20039;-78
2024/01/12 04:40:32;;;;;;;0.70;0.70;;;1.60;99.90;;;;;;5094513;28;20051;-79
2024/01/12 04:42:57;;;;;;;0.63;0.63;;;1.60;99.90;;;;;;5093398;28;20384;-81
2024/01/12 04:45:23;;;;;;;0.60;0.60;;;1.70;99.90;;;;;;5110625;28;20054;-77
2024/01/12 04:47:49;;;;;;;0.68;0.68;;;1.60;99.90;;;;;;5110669;28;20036;-78
2024/01/12 04:50:14;;;;;;;0.70;0.70;;;1.60;99.90;;;;;;5123984;27;20046;-78
2024/01/12 04:52:40;;;;;;;0.60;0.60;;;1.60;99.90;;;;;;5115313;27;20039;-75
2024/01/12 04:55:06;;;;;;;0.70;0.70;;;1.60;99.90;;;;;;5078188;27;20120;-80
2024/01/12 04:57:32;;;;;;;0.68;0.68;;;1.60;99.90;;;;;;5127221;27;20047;-77
2024/01/12 04:59:57;;;;;;;0.85;0.85;;;1.60;99.90;;;;;;5077112;28;20048;-76
2024/01/12 05:02:23;;;;;;;0.70;0.70;;;1.60;99.90;;;;;;5096090;27;20043;-77
2024/01/12 05:04:49;;;;;;;0.60;0.60;;;2.00;99.90;;;;;;5119986;27;20047;-77
2024/01/12 05:07:14;;;;;;;0.60;0.60;;;1.50;99.90;;;;;;5093971;27;20052;-80
2024/01/12 05:09:40;;;;;;;0.95;0.95;;;1.50;99.90;;;;;;5117366;27;20051;-76
2024/01/12 05:12:07;;;;;;;0.60;0.60;;;1.70;99.90;;;;;;5078924;28;20032;-76
2024/01/12 05:14:32;;;;;;;0.65;0.65;;;1.40;99.90;;;;;;5095683;27;20050;-79
2024/01/12 05:16:58;;;;;;;0.73;0.73;;;1.40;99.90;;;;;;5099514;28;20035;-76
2024/01/12 05:19:24;;;;;;;0.80;0.80;;;1.40;99.90;;;;;;5093137;27;20047;-77
2024/01/12 05:21:50;;;;;;;0.63;0.63;;;1.40;99.90;;;;;;5118184;27;20056;-76
2024/01/12 05:24:16;;;;;;;0.70;0.70;;;1.40;99.90;;;;;;5071961;28;20492;-81
2024/01/12 05:26:43;;;;;;;;;;;1.50;99.90;;;;;;5110846;28;20044;-78
2024/01/12 05:29:09;;;;;;;0.60;0.60;;;1.40;99.90;;;;;;5115347;27;20018;-80
2024/01/12 05:31:35;;;;;;;0.65;0.65;;;2.00;99.90;;;;;;5108891;28;20131;-81
2024/01/12 05:34:01;;;;;;;0.50;0.50;;;1.50;99.90;;;;;;5117358;27;20047;-76
2024/01/12 05:36:26;;;;;;;0.60;0.60;;;1.50;99.90;;;;;;5075871;28;20378;-80
2024/01/12 05:38:53;;;;;;;0.70;0.70;;;1.90;99.90;;;;;;5093938;28;20043;-79
2024/01/12 05:41:18;;;;;;;0.60;0.60;;;1.60;99.90;;;;;;5099371;28;20039;-79
2024/01/12 05:43:44;;;;;;;0.85;0.85;;;1.70;99.90;;;;;;5075590;28;20111;-80
2024/01/12 05:46:10;;;;;;;0.75;0.75;;;1.80;99.90;;;;;;5076134;28;20043;-77
2024/01/12 05:48:36;;;;;;;0.60;0.60;;;1.80;99.90;;;;;;5057870;28;20044;-79
2024/01/12 05:51:01;;;;;;;0.65;0.65;;;1.80;99.90;;;;;;5073180;28;20138;-78
2024/01/12 05:53:27;;;;;;;0.70;0.70;;;1.90;99.90;;;;;;5102730;28;20039;-76
2024/01/12 05:55:53;;;;;;;0.60;0.60;;;1.90;99.90;;;;;;5060736;28;20039;-77
2024/01/12 05:58:19;;;;;;;0.60;0.60;;;1.90;99.90;;;;;;5112377;28;20107;-79
2024/01/12 06:00:47;;;;;;;0.90;0.90;;;2.00;99.90;;;;;;5111586;28;20055;-78
2024/01/12 06:03:13;;;;;;;0.85;0.85;;;2.20;99.90;;;;;;5110601;28;20059;-81
2024/01/12 06:05:40;;;;;;;0.60;0.60;;;2.10;99.90;;;;;;5119511;27;20388;-78
2024/01/12 06:08:06;;;;;;;0.70;0.70;;;2.10;99.90;;;;;;5096905;28;20051;-79
2024/01/12 06:10:31;;;;;;;3.53;3.33;;;2.20;99.90;;;;;;5096445;28;20204;-77
2024/01/12 06:12:57;;;;;;;0.60;0.60;;;2.10;99.90;;;;;;5115140;28;20373;-77
2024/01/12 06:15:23;;;;;;;6.25;5.90;;;2.10;99.90;;;;;;5100788;27;20035;-77
2024/01/12 06:17:48;;;;;;;0.60;0.60;;;2.10;99.90;;;;;;5122016;27;20067;-76
2024/01/12 06:20:14;;;;;;;0.60;0.60;;;2.10;99.90;;;;;;5095942;28;20046;-78
2024/01/12 06:22:40;;;;;;;0.70;0.70;;;2.10;99.90;;;;;;5098660;27;20505;-78
2024/01/12 06:25:06;;;;;;;0.68;0.68;;;2.10;99.90;;;;;;5119043;27;20048;-79
2024/01/12 06:27:32;;;;;;;0.68;0.68;;;2.10;99.90;;;;;;5095960;27;20081;-78
2024/01/12 06:29:57;;;;;;;0.50;0.50;;;2.10;99.90;;;;;;5120935;27;20074;-80
2024/01/12 06:32:23;;;;;;;1.23;1.23;;;2.10;99.90;;;;;;5095599;28;20467;-76
2024/01/12 06:34:49;;;;;;;0.60;0.60;;;2.10;99.90;;;;;;5112997;28;20039;-77
2024/01/12 06:37:14;;;;;;;0.93;0.93;;;2.20;99.90;;;;;;5112555;28;20507;-76
2024/01/12 06:39:40;;;;;;;0.57;0.57;;;2.20;99.90;;;;;;5096193;28;20142;-78
2024/01/12 06:42:06;;;;;;;0.93;0.93;;;2.20;99.90;;;;;;5120653;27;20081;-78
2024/01/12 06:44:32;;;;;;;1.23;1.23;;;2.20;99.90;;;;;;5095719;28;20103;-78
2024/01/12 06:46:57;;;;;;;0.57;0.57;;;2.90;99.90;;;;;;5114793;27;20050;-78
2024/01/12 06:49:23;;;;;;;0.65;0.65;;;2.30;99.90;;;;;;5102817;28;20103;-79
2024/01/12 06:51:48;;;;;;;2.83;1.48;;;2.50;99.90;;;;;;5112581;28;20040;-77
2024/01/12 06:54:14;;;;;;;2.25;2.10;;;2.40;99.90;;;;;;5099258;27;20399;-80
2024/01/12 06:56:40;;;;;;;0.70;0.70;;;2.40;99.90;;;;;;5119754;27;20079;-78
2024/01/12 06:59:06;;;;;;;0.50;0.50;;;2.60;99.90;;;;;;5063211;27;20043;-76
2024/01/12 07:01:32;;;;;;;0.60;0.60;;;2.40;99.90;;;;;;5119397;27;20120;-78
2024/01/12 07:03:57;;;;;;;0.68;0.68;;;2.40;99.90;;;;;;5112699;28;20039;-79
2024/01/12 07:06:23;;;;;;;0.70;0.70;;;2.40;99.90;;;;;;5111909;28;20381;-80
2024/01/12 07:08:49;;;;;;;0.50;0.50;;;2.50;99.90;;;;;;5111950;28;20126;-81
2024/01/12 07:11:15;;;;;;;0.57;0.57;;;2.50;99.90;;;;;;5095554;27;20054;-83
2024/01/12 07:13:40;;;;;;;0.68;0.68;;;2.50;99.90;;;;;;5098052;28;20119;-81
2024/01/12 07:16:06;;;;;;;0.70;0.70;;;3.20;99.90;;;;;;5093971;28;20422;-78
2024/01/12 07:18:32;;;;;;;1.08;1.08;;;2.50;99.90;;;;;;5097169;27;20032;-79
2024/01/12 07:21:02;;;;;;;0.57;0.57;;;3.10;99.90;;;;;;5118607;27;20104;-78
2024/01/12 07:23:30;;;;;;;0.70;0.70;;;2.50;99.90;;;;;;5101341;27;20058;-77
2024/01/12 07:25:57;;;;;;;0.60;0.60;;;2.50;99.90;;;;;;5085182;28;20440;-78
2024/01/12 07:28:25;;;;;;;0.52;0.52;;;2.50;99.90;;;;;;5095734;28;20758;-78
2024/01/12 07:30:52;;;;;;;0.60;0.60;;;2.50;99.90;;;;;;5097824;27;20034;-78
2024/01/12 07:33:18;;;;;;;0.70;0.70;;;2.50;99.90;;;;;;5099684;28;20872;-79
2024/01/12 07:35:43;;;;;;;6.28;1.27;;;2.60;99.90;;;;;;5113005;27;20055;-80
2024/01/12 07:38:09;;;;;;;0.60;0.60;;;2.50;99.90;;;;;;5120993;27;20096;-80
2024/01/12 07:40:35;;;;;;;;;;;2.50;99.90;;;;;;5123130;27;20043;-77
2024/01/12 07:43:01;;;;;;;0.50;0.50;;;2.50;99.90;;;;;;5112353;28;20291;-78
2024/01/12 07:45:31;;;;;;;0.60;0.60;;;2.60;99.90;;;;;;5093916;28;20122;-81
2024/01/12 07:47:57;;;;;;;0.50;0.50;;;2.80;99.90;;;;;;5095375;28;20050;-79
2024/01/12 07:50:23;;;;;;;0.70;0.70;;;2.60;99.90;;;;;;5111326;28;20051;-77
2024/01/12 07:52:48;;;;;;;0.60;0.60;;;2.60;99.90;;;;;;5110111;28;20472;-77
2024/01/12 07:55:14;;;;;;;0.60;0.60;;;3.90;99.90;;;;;;5112858;27;20051;-79
2024/01/12 07:57:40;;;;;;;1.00;1.00;;;2.60;99.90;;;;;;5081375;28;20130;-80
2024/01/12 08:00:06;;;;;;;0.60;0.60;;;2.60;99.90;;;;;;5094803;27;20094;-76
2024/01/12 08:02:32;;;;;;;0.60;0.60;;;2.60;99.90;;;;;;5118178;27;20051;-77
2024/01/12 08:04:58;;;;;;;0.60;0.60;;;2.70;99.90;;;;;;5094064;28;20105;-78
2024/01/12 08:07:24;;;;;;;0.60;0.60;;;2.80;99.90;;;;;;5113449;27;20043;-79
2024/01/12 08:09:49;;;;;;;0.60;0.60;;;2.80;99.90;;;;;;5099655;28;20052;-77
2024/01/12 08:12:15;;;;;;;0.60;0.60;;;2.90;99.90;;;;;;5113283;28;20118;-80
2024/01/12 08:14:41;;;;;;;0.60;0.60;;;2.90;99.90;;;;;;5096173;28;20039;-79
2024/01/12 08:17:07;;;;;;;0.60;0.60;;;3.20;99.90;;;;;;5110717;28;20121;-76
2024/01/12 08:19:33;;;;;;;0.70;0.70;;;3.00;99.90;;;;;;5096292;27;20043;-78
2024/01/12 08:21:59;;;;;;;;;;;3.00;99.90;;;;;;5083491;28;20039;-80
2024/01/12 08:24:24;;;;;;;0.90;0.90;;;3.10;99.90;;;;;;5093873;27;19923;-81
2024/01/12 08:26:50;;;;;;;0.68;0.68;;;3.10;99.90;;;;;;5101950;28;20085;-80
2024/01/12 08:29:17;;;;;;;0.60;0.60;;;3.20;99.90;;;;;;5110474;28;20119;-78
2024/01/12 08:31:43;;;;;;;0.60;0.60;;;3.20;99.90;;;;;;5110418;28;20058;-80
2024/01/12 08:34:09;;;;;;;0.55;0.55;;;3.20;99.90;;;;;;5093495;28;20043;-77
2024/01/12 08:36:34;;;;;;;0.60;0.60;;;3.30;99.90;;;;;;5072920;28;20044;-78
2024/01/12 08:39:00;;;;;;;0.70;0.70;;;3.20;99.90;;;;;;5069212;28;20545;-78
2024/01/12 08:41:26;;;;;;;0.50;0.50;;;3.20;99.90;;;;;;5077407;28;20192;-79
2024/01/12 08:43:53;;;;;;;0.50;0.50;;;3.20;99.90;;;;;;5094208;27;20509;-81
2024/01/12 08:46:24;;;;;;;0.50;0.50;;;3.20;99.90;;;;;;5100663;28;20127;-81
2024/01/12 08:48:50;;;;;;;0.60;0.60;;;3.30;99.90;;;;;;5094657;27;20848;-77
2024/01/12 08:51:16;;;;;;;0.60;0.60;;;3.30;99.90;;;;;;5118684;27;20077;-80
2024/01/12 08:53:41;;;;;;;0.70;0.70;;;3.30;99.90;;;;;;5093352;28;20472;-78
2024/01/12 08:56:07;;;;;;;0.50;0.50;;;3.30;99.90;;;;;;5111440;27;20043;-80
2024/01/12 08:58:34;;;;;;;0.60;0.60;;;3.60;99.90;;;;;;5116107;27;20081;-79
2024/01/12 09:00:59;;;;;;;;;;;3.30;99.90;;;;;;5110671;27;20047;-77
2024/01/12 09:03:25;;;;;;;0.60;0.60;;;3.30;99.90;;;;;;5084369;28;19932;-76
2024/01/12 09:05:51;;;;;;;0.50;0.50;;;3.30;99.90;;;;;;5108901;28;20486;-80
2024/01/12 09:08:18;;;;;;;0.70;0.70;;;3.30;99.90;;;;;;5111172;27;20555;-80
2024/01/12 09:10:44;;;;;;;0.70;0.70;;;3.40;99.90;;;;;;5088153;27;20062;-78
2024/01/12 09:13:10;;;;;;;;;;;3.40;99.90;;;;;;5094956;28;20081;-78
2024/01/12 09:15:36;;;;;;;0.65;0.65;;;3.30;99.90;;;;;;5095146;27;19966;-77
2024/01/12 09:18:03;;;;;;;0.55;0.55;;;3.40;99.90;;;;;;5097529;28;20044;-77
2024/01/12 09:20:29;;;;;;;0.70;0.70;;;3.40;99.90;;;;;;5110907;27;20084;-80
2024/01/12 09:22:55;;;;;;;0.70;0.70;;;3.60;99.90;;;;;;5115885;27;20047;-81
2024/01/12 09:25:20;;;;;;;0.68;0.68;;;3.50;99.90;;;;;;5091912;28;20047;-77
2024/01/12 09:27:46;;;;;;;0.70;0.70;;;3.50;99.90;;;;;;5077903;27;20087;-80
2024/01/12 09:30:12;;;;;;;0.60;0.60;;;3.50;99.90;;;;;;5097562;28;20511;-79
2024/01/12 09:32:38;;;;;;;0.50;0.50;;;3.50;99.90;;;;;;5110303;27;20500;-80
2024/01/12 09:35:04;;;;;;;0.50;0.50;;;3.50;99.90;;;;;;5099792;28;20043;-82
2024/01/12 09:37:30;;;;;;;0.60;0.60;;;3.60;99.90;;;;;;5109287;28;20044;-80
2024/01/12 09:39:55;;;;;;;0.50;0.50;;;3.60;99.90;;;;;;5110377;28;20067;-77
2024/01/12 09:42:23;;;;;;;0.60;0.60;;;3.70;99.90;;;;;;5098131;28;20697;-78
2024/01/12 09:44:52;;;;;;;0.70;0.70;;;3.70;99.90;;;;;;5091550;28;20039;-77
2024/01/12 09:47:17;;;;;;;0.70;0.70;;;3.70;99.90;;;;;;5093674;28;20560;-78
2024/01/12 09:49:44;;;;;;;0.70;0.70;;;3.90;99.90;;;;;;5074459;28;20118;-78
2024/01/12 09:52:10;;;;;;;1.35;1.35;;;3.70;99.90;;;;;;5099559;28;20478;-80
2024/01/12 09:54:36;;;;;;;0.60;0.60;;;3.70;99.90;;;;;;5100669;28;20476;-80
2024/01/12 09:57:05;;;;;;;0.50;0.50;;;3.70;99.90;;;;;;5093143;28;20422;-79
2024/01/12 09:59:31;;;;;;;0.82;0.82;;;3.70;99.90;;;;;;5124759;28;20443;-81
2024/01/12 10:01:57;;;;;;;;;;;3.60;99.90;;;;;;5109299;28;20039;-77
2024/01/12 10:04:23;;;;;;;0.52;0.52;;;3.60;99.90;;;;;;5095031;28;19930;-76
2024/01/12 10:06:48;;;;;;;0.70;0.70;;;3.70;99.90;;;;;;5113872;28;20124;-79
2024/01/12 10:09:16;;;;;;;0.43;0.43;;;3.60;99.90;;;;;;5110004;28;20039;-78
2024/01/12 10:11:43;;;;;;;0.60;0.60;;;3.70;99.90;;;;;;5098981;28;20051;-77
2024/01/12 10:14:08;;;;;;;;;;;3.70;99.90;;;;;;5107265;28;20050;-80
2024/01/12 10:16:34;;;;;;;0.68;0.68;;;3.70;99.90;;;;;;5094390;28;19930;-79
2024/01/12 10:19:00;;;;;;;0.50;0.50;;;3.70;99.90;;;;;;5097330;28;20048;-80
2024/01/12 10:21:26;;;;;;;0.60;0.60;;;3.80;99.90;;;;;;5092409;28;20039;-78
2024/01/12 10:24:05;;;;;;;0.50;0.50;;;3.80;99.90;;;;;;5116053;28;20407;-78
2024/01/12 10:26:31;;;;;;;0.63;0.63;;;4.30;99.90;;;;;;5092868;28;20039;-78
2024/01/12 10:29:04;;;;;;;0.60;0.60;;;3.80;99.90;;;;;;5116019;28;20180;-79
2024/01/12 10:31:30;;;;;;;0.75;0.73;;;3.80;99.90;;;;;;5091414;28;20039;-80
2024/01/12 10:34:01;;;;;;;0.70;0.70;;;3.80;99.90;;;;;;5125315;28;20036;-79
2024/01/12 10:36:28;;;;;;;0.60;0.60;;;3.90;99.90;;;;;;5108207;28;20120;-79
2024/01/12 10:38:57;;;;;;;0.68;0.68;;;3.90;99.90;;;;;;5093738;28;20451;-80
2024/01/12 10:41:25;;;;;;;0.60;0.60;;;4.60;99.90;;;;;;5096947;28;20381;-78
2024/01/12 10:43:53;;;;;;;0.55;0.55;;;3.90;99.90;;;;;;5109357;28;20039;-78
2024/01/12 10:46:47;;;;;;;0.60;0.60;;;4.10;99.90;;;;;;5115548;28;20100;-81
2024/01/12 10:49:26;;;;;;;0.50;0.50;;;4.00;99.90;;;;;;5100544;28;20134;-78
2024/01/12 10:52:10;;;;;;;0.50;0.50;;;3.90;99.90;;;;;;5111744;27;20387;-81
2024/01/12 10:55:04;;;;;;;0.52;0.52;;;4.10;99.90;;;;;;5100758;28;20036;-80
2024/01/12 10:57:32;;;;;;;0.60;0.60;;;3.90;99.90;;;;;;5106266;28;20077;-78
2024/01/12 10:59:59;;;;;;;0.70;0.70;;;3.90;99.90;;;;;;5095522;27;20049;-81
2024/01/12 11:02:25;;;;;;;1.33;1.33;;;4.20;99.90;;;;;;5120237;27;20047;-80
2024/01/12 11:04:52;;;;;;;0.70;0.70;;;4.00;99.90;;;;;;5095349;28;20114;-79
2024/01/12 11:07:19;;;;;;;0.57;0.57;;;4.10;99.90;;;;;;5114413;27;20127;-79
2024/01/12 11:09:44;;;;;;;0.50;0.50;;;4.10;99.90;;;;;;5101270;28;20109;-81
2024/01/12 11:12:35;;;;;;;0.50;0.50;;;4.90;99.90;;;;;;5076485;28;20039;-80
2024/01/12 11:15:02;;;;;;;0.52;0.52;;;4.10;99.90;;;;;;5099730;28;20065;-80
2024/01/12 11:17:35;;;;;;;0.93;0.93;;;4.10;99.90;;;;;;5113492;27;20513;-81
2024/01/12 11:20:11;;;;;;;0.43;0.43;;;4.10;99.90;;;;;;5117210;27;20079;-81
2024/01/12 11:22:38;;;;;;;0.60;0.60;;;4.10;99.90;;;;;;5115827;27;20043;-78
2024/01/12 11:25:06;;;;;;;0.60;0.60;;;4.10;99.90;;;;;;5117801;27;20457;-79
2024/01/12 11:27:40;;;;;;;1.17;0.85;;;4.10;99.90;;;;;;5112843;27;20047;-78
2024/01/12 11:30:08;;;;;;;0.63;0.63;;;4.10;99.90;;;;;;5118309;27;20039;-77
2024/01/12 11:32:33;;;;;;;0.50;0.50;;;4.20;99.90;;;;;;5095241;27;20071;-79
2024/01/12 11:35:13;;;;;;;0.70;0.70;;;4.20;99.90;;;;;;5102774;28;20040;-79
2024/01/12 11:37:39;;;;;;;0.60;0.60;;;4.20;99.90;;;;;;5112985;27;20050;-79
2024/01/12 11:40:09;;;;;;;;;;;4.20;99.90;;;;;;5102943;28;20051;-79
2024/01/12 11:42:40;;;;;;;0.70;0.70;;;4.20;99.90;;;;;;5120803;27;19919;-78
2024/01/12 11:45:10;;;;;;;0.65;0.65;;;4.20;99.90;;;;;;5114383;27;20047;-79
2024/01/12 11:47:40;;;;;;;0.60;0.60;;;4.30;99.90;;;;;;5132644;27;20046;-81
2024/01/12 11:50:07;;;;;;;0.50;0.50;;;5.20;99.90;;;;;;5098170;27;20048;-82
2024/01/12 11:52:33;;;;;;;0.60;0.60;;;4.40;99.90;;;;;;5100559;28;20388;-80
2024/01/12 11:54:59;;;;;;;0.60;0.60;;;3.10;99.90;;;;;;5095258;27;20105;-80
2024/01/12 11:57:26;;;;;;;0.47;0.47;;;4.50;99.90;;;;;;5098632;27;20039;-82
2024/01/12 11:59:56;;;;;;;0.57;0.57;;;4.50;99.90;;;;;;5116121;27;20039;-81
2024/01/12 12:02:23;;;;;;;0.55;0.55;;;4.50;99.90;;;;;;5105975;27;20257;-80
2024/01/12 12:04:51;;;;;;;0.50;0.50;;;4.50;99.90;;;;;;5132429;27;20063;-80
2024/01/12 12:07:21;;;;;;;2.05;1.95;;;4.50;99.90;;;;;;5079398;28;20148;-82
2024/01/12 12:09:47;;;;;;;0.60;0.60;;;4.60;99.90;;;;;;5077862;28;20051;-81
2024/01/12 12:12:13;;;;;;;;;;;4.50;99.90;;;;;;5078861;27;20056;-81
2024/01/12 12:15:06;;;;;;;0.50;0.50;;;4.50;99.90;;;;;;5120144;27;20276;-81
2024/01/12 12:17:35;;;;;;;0.50;0.50;;;4.50;99.90;;;;;;5114074;27;20044;-83
2024/01/12 12:20:01;;;;;;;0.50;0.50;;;4.70;99.90;;;;;;5117481;27;20044;-80
2024/01/12 12:22:29;;;;;;;0.50;0.50;;;4.60;99.90;;;;;;5096353;27;20484;-82
2024/01/12 12:24:55;;;;;;;0.52;0.52;;;4.60;99.90;;;;;;5132427;27;20044;-82
2024/01/12 12:27:22;;;;;;;0.60;0.60;;;4.60;99.90;;;;;;5098346;28;20050;-79
2024/01/12 12:29:50;;;;;;;0.60;0.60;;;5.00;99.90;;;;;;5081684;27;20043;-81
2024/01/12 12:32:16;;;;;;;0.70;0.70;;;4.60;99.90;;;;;;5116775;27;20047;-81
2024/01/12 12:34:45;;;;;;;0.60;0.60;;;4.70;99.90;;;;;;5098517;28;20035;-81
2024/01/12 12:37:13;;;;;;;0.52;0.52;;;4.70;99.90;;;;;;5113171;28;20047;-81
2024/01/12 12:39:39;;;;;;;0.60;0.60;;;4.60;99.90;;;;;;5095351;28;20126;-82
2024/01/12 12:42:08;;;;;;;0.60;0.60;;;4.80;99.90;;;;;;5111733;28;20118;-80
2024/01/12 12:44:35;;;;;;;0.50;0.50;;;4.60;99.90;;;;;;5113373;28;20097;-83
2024/01/12 12:47:04;;;;;;;0.50;0.50;;;5.50;99.90;;;;;;5097013;28;20054;-80
2024/01/12 12:49:37;;;;;;;0.57;0.57;;;4.70;99.90;;;;;;5109206;28;20060;-81
2024/01/12 12:52:06;;;;;;;0.52;0.52;;;4.70;99.90;;;;;;5123323;27;20035;-84
2024/01/12 12:54:32;;;;;;;0.50;0.50;;;5.60;99.90;;;;;;5119758;27;20126;-83
2024/01/12 12:56:59;;;;;;;0.57;0.57;;;4.70;99.90;;;;;;5094851;27;20042;-83